createdAt,value
2022-11-06T00:00:27.190Z,8.02
2022-11-06T00:02:56.475Z,7.05
2022-11-06T00:05:41.329Z,7.40
2022-11-06T00:08:07.710Z,8.15
2022-11-06T00:10:34.094Z,7.05
2022-11-06T00:13:00.556Z,8.20
2022-11-06T00:15:27.569Z,8.10
2022-11-06T00:17:53.960Z,7.90
2022-11-06T00:20:20.514Z,8.10
2022-11-06T00:22:46.896Z,7.38
2022-11-06T00:25:13.292Z,7.72
2022-11-06T00:27:41.289Z,7.80
2022-11-06T00:30:09.562Z,7.25
2022-11-06T00:32:35.944Z,8.50
2022-11-06T00:35:02.335Z,7.63
2022-11-06T00:37:28.726Z,6.88
2022-11-06T00:39:55.112Z,7.28
2022-11-06T00:42:21.489Z,7.65
2022-11-06T00:44:47.898Z,8.30
2022-11-06T00:47:14.297Z,7.75
2022-11-06T00:49:40.696Z,7.85
2022-11-06T00:52:07.127Z,7.30
2022-11-06T00:54:33.500Z,8.02
2022-11-06T00:56:59.898Z,7.75
2022-11-06T00:59:26.268Z,7.05
2022-11-06T01:01:52.759Z,7.80
2022-11-06T01:04:21.662Z,7.80
2022-11-06T01:06:52.906Z,7.88
2022-11-06T01:09:22.134Z,7.38
2022-11-06T01:14:40.021Z,7.35
2022-11-06T01:17:06.663Z,8.15
2022-11-06T01:19:33.040Z,7.43
2022-11-06T01:21:59.454Z,7.57
2022-11-06T01:24:28.461Z,7.85
2022-11-06T01:29:42.125Z,8.02
2022-11-06T01:32:08.546Z,8.93
2022-11-06T01:34:35.137Z,7.78
2022-11-06T01:37:01.559Z,8.25
2022-11-06T01:39:27.971Z,7.75
2022-11-06T01:41:54.510Z,9.07
2022-11-06T01:44:36.042Z,7.97
2022-11-06T01:47:05.098Z,7.90
2022-11-06T01:49:37.616Z,8.52
2022-11-06T01:52:10.341Z,8.48
2022-11-06T01:54:38.961Z,9.25
2022-11-06T01:57:05.837Z,8.73
2022-11-06T01:59:35.604Z,8.23
2022-11-06T02:02:02.074Z,8.50
2022-11-06T02:04:34.412Z,8.95
2022-11-06T02:07:01.093Z,8.90
2022-11-06T02:09:29.782Z,9.63
2022-11-06T02:12:00.569Z,8.57
2022-11-06T02:14:48.216Z,9.65
2022-11-06T02:17:37.324Z,9.30
2022-11-06T02:20:22.058Z,8.85
2022-11-06T02:23:39.536Z,9.20
2022-11-06T02:26:50.427Z,8.98
2022-11-06T02:29:25.547Z,8.45
2022-11-06T02:31:55.958Z,7.70
2022-11-06T02:34:25.980Z,8.75
2022-11-06T02:37:00.274Z,9.45
2022-11-06T02:39:29.439Z,8.32
2022-11-06T02:41:59.395Z,9.98
2022-11-06T02:44:28.998Z,9.57
2022-11-06T02:47:03.345Z,9.32
2022-11-06T02:49:42.869Z,8.65
2022-11-06T02:52:29.241Z,8.88
2022-11-06T02:55:01.341Z,8.50
2022-11-06T02:57:31.829Z,8.75
2022-11-06T03:00:03.844Z,6.47
2022-11-06T03:02:38.289Z,9.88
2022-11-06T03:05:12.754Z,9.73
2022-11-06T03:07:50.456Z,9.52
2022-11-06T03:10:17.144Z,9.25
2022-11-06T03:12:52.340Z,9.73
2022-11-06T03:15:35.066Z,9.70
2022-11-06T03:18:17.084Z,9.73
2022-11-06T03:20:58.448Z,10.50
2022-11-06T03:23:27.137Z,9.05
2022-11-06T03:26:09.052Z,9.70
2022-11-06T03:28:47.616Z,11.00
2022-11-06T03:31:19.201Z,9.63
2022-11-06T03:33:58.348Z,10.10
2022-11-06T03:36:35.115Z,9.43
2022-11-06T03:39:06.246Z,9.85
2022-11-06T03:41:40.116Z,10.18
2022-11-06T03:44:11.183Z,10.48
2022-11-06T03:49:10.808Z,9.32
2022-11-06T03:51:53.702Z,9.98
2022-11-06T03:54:27.335Z,10.25
2022-11-06T03:57:06.185Z,10.60
2022-11-06T03:59:39.513Z,10.25
2022-11-06T04:02:06.074Z,9.85
2022-11-06T04:04:41.565Z,9.68
2022-11-06T04:07:13.116Z,10.57
2022-11-06T04:10:01.000Z,9.50
2022-11-06T04:12:49.935Z,10.13
2022-11-06T04:15:19.381Z,9.43
2022-11-06T04:17:45.754Z,9.48
2022-11-06T04:20:38.161Z,10.23
2022-11-06T04:23:14.282Z,9.82
2022-11-06T04:26:30.450Z,9.77
2022-11-06T04:29:06.732Z,9.25
2022-11-06T04:31:42.076Z,10.65
2022-11-06T04:34:27.709Z,9.93
2022-11-06T04:37:15.280Z,10.30
2022-11-06T04:40:04.598Z,9.35
2022-11-06T04:43:01.502Z,9.68
2022-11-06T04:45:35.561Z,9.88
2022-11-06T04:48:03.996Z,10.20
2022-11-06T04:50:35.493Z,9.60
2022-11-06T04:53:04.135Z,9.73
2022-11-06T04:55:30.752Z,10.38
2022-11-06T04:57:57.253Z,9.65
2022-11-06T05:00:24.430Z,9.90
2022-11-06T05:02:50.804Z,9.10
2022-11-06T05:05:17.197Z,9.60
2022-11-06T05:07:43.574Z,10.23
2022-11-06T05:10:09.969Z,10.15
2022-11-06T05:12:36.350Z,9.40
2022-11-06T05:15:02.720Z,10.05
2022-11-06T05:17:32.618Z,8.88
2022-11-06T05:20:01.764Z,9.90
2022-11-06T05:22:46.806Z,9.05
2022-11-06T05:25:13.236Z,9.13
2022-11-06T05:27:39.609Z,9.15
2022-11-06T05:30:06.580Z,8.75
2022-11-06T05:32:32.973Z,8.68
2022-11-06T05:34:59.409Z,9.48
2022-11-06T05:37:27.321Z,9.18
2022-11-06T05:39:53.728Z,9.57
2022-11-06T05:42:21.460Z,8.65
2022-11-06T05:44:47.832Z,9.52
2022-11-06T05:47:14.256Z,8.73
2022-11-06T05:49:40.663Z,8.50
2022-11-06T05:52:07.058Z,9.98
2022-11-06T05:54:33.433Z,9.45
2022-11-06T05:56:59.817Z,8.38
2022-11-06T05:59:26.209Z,8.75
2022-11-06T06:01:52.638Z,8.50
2022-11-06T06:04:19.071Z,9.25
2022-11-06T06:06:45.806Z,8.57
2022-11-06T06:09:12.183Z,8.65
2022-11-06T06:11:38.563Z,9.63
2022-11-06T06:14:05.007Z,8.90
2022-11-06T06:16:31.525Z,8.38
2022-11-06T06:18:57.925Z,9.20
2022-11-06T06:21:24.302Z,8.15
2022-11-06T06:23:50.697Z,8.60
2022-11-06T06:26:17.146Z,8.38
2022-11-06T06:28:43.663Z,9.93
2022-11-06T06:31:10.736Z,9.27
2022-11-06T06:33:37.117Z,9.10
2022-11-06T06:36:04.905Z,9.40
2022-11-06T06:38:31.292Z,8.88
2022-11-06T06:41:05.853Z,8.98
2022-11-06T06:43:32.479Z,8.57
2022-11-06T06:46:00.366Z,9.63
2022-11-06T06:48:27.371Z,9.20
2022-11-06T06:50:56.870Z,9.40
2022-11-06T06:53:23.253Z,10.45
2022-11-06T06:55:49.636Z,11.32
2022-11-06T06:58:18.076Z,10.05
2022-11-06T07:00:45.107Z,10.48
2022-11-06T07:03:11.648Z,10.35
2022-11-06T07:05:39.122Z,10.27
2022-11-06T07:08:05.705Z,9.20
2022-11-06T07:10:32.489Z,10.23
2022-11-06T07:13:03.302Z,9.50
2022-11-06T07:15:29.714Z,9.70
2022-11-06T07:17:56.090Z,9.82
2022-11-06T07:20:22.464Z,9.13
2022-11-06T07:22:48.839Z,10.35
2022-11-06T07:25:15.230Z,10.13
2022-11-06T07:27:41.602Z,9.93
2022-11-06T07:30:08.355Z,9.77
2022-11-06T07:32:34.728Z,10.00
2022-11-06T07:35:01.122Z,8.15
2022-11-06T07:37:27.506Z,8.48
2022-11-06T07:39:53.914Z,9.70
2022-11-06T07:42:20.297Z,9.13
2022-11-06T07:44:57.640Z,8.95
2022-11-06T07:47:24.033Z,9.57
2022-11-06T07:49:51.293Z,9.32
2022-11-06T07:52:17.789Z,9.27
2022-11-06T07:54:44.165Z,9.20
2022-11-06T07:57:10.560Z,9.40
2022-11-06T07:59:36.946Z,8.80
2022-11-06T08:02:03.417Z,9.35
2022-11-06T08:04:29.945Z,9.38
2022-11-06T08:06:59.334Z,9.95
2022-11-06T08:09:25.733Z,9.70
2022-11-06T08:11:52.097Z,9.95
2022-11-06T08:14:18.486Z,8.85
2022-11-06T08:16:44.871Z,9.50
2022-11-06T08:19:11.270Z,9.50
2022-11-06T08:21:37.658Z,10.52
2022-11-06T08:24:04.721Z,9.90
2022-11-06T08:26:31.923Z,10.13
2022-11-06T08:28:58.421Z,9.43
2022-11-06T08:31:25.029Z,9.77
2022-11-06T08:33:51.596Z,9.68
2022-11-06T08:36:17.969Z,8.90
2022-11-06T08:38:47.712Z,9.57
2022-11-06T08:41:14.389Z,9.80
2022-11-06T08:43:40.861Z,9.70
2022-11-06T08:46:09.367Z,9.63
2022-11-06T08:48:36.362Z,8.88
2022-11-06T08:51:04.899Z,9.02
2022-11-06T08:53:31.365Z,9.57
2022-11-06T08:55:57.761Z,9.07
2022-11-06T08:58:24.137Z,10.18
2022-11-06T09:00:50.547Z,9.15
2022-11-06T09:03:18.073Z,9.20
2022-11-06T09:05:45.523Z,9.70
2022-11-06T09:08:13.051Z,8.73
2022-11-06T09:10:41.134Z,9.80
2022-11-06T09:13:07.871Z,9.55
2022-11-06T09:15:34.461Z,9.55
2022-11-06T09:18:01.151Z,10.05
2022-11-06T09:20:27.815Z,8.80
2022-11-06T09:22:55.033Z,9.80
2022-11-06T09:25:21.917Z,8.45
2022-11-06T09:27:58.575Z,8.27
2022-11-06T09:30:27.278Z,8.98
2022-11-06T09:32:56.107Z,9.85
2022-11-06T09:35:24.493Z,8.77
2022-11-06T09:37:51.272Z,8.48
2022-11-06T09:40:26.811Z,8.30
2022-11-06T09:43:08.113Z,9.25
2022-11-06T09:45:39.148Z,8.55
2022-11-06T09:51:00.173Z,8.52
2022-11-06T09:53:51.591Z,8.25
2022-11-06T09:56:21.741Z,8.18
2022-11-06T09:58:49.308Z,7.40
2022-11-06T10:01:25.957Z,8.73
2022-11-06T10:03:59.931Z,7.65
2022-11-06T10:06:28.152Z,9.23
2022-11-06T10:08:58.870Z,7.35
2022-11-06T10:11:33.635Z,7.22
2022-11-06T10:14:14.006Z,7.25
2022-11-06T10:16:50.833Z,7.60
2022-11-06T10:19:41.332Z,7.07
2022-11-06T10:22:07.689Z,7.65
2022-11-06T10:24:46.519Z,7.35
2022-11-06T10:27:27.977Z,6.53
2022-11-06T10:30:04.693Z,6.50
2022-11-06T10:32:53.042Z,6.50
2022-11-06T10:35:23.998Z,7.30
2022-11-06T10:38:14.679Z,6.22
2022-11-06T10:40:45.199Z,7.30
2022-11-06T10:43:20.735Z,6.53
2022-11-06T10:45:52.803Z,6.35
2022-11-06T10:48:34.392Z,5.75
2022-11-06T10:51:25.294Z,5.70
2022-11-06T10:54:17.404Z,6.32
2022-11-06T10:56:58.377Z,5.85
2022-11-06T10:59:24.966Z,5.63
2022-11-06T11:01:51.846Z,6.95
2022-11-06T11:04:18.368Z,6.47
2022-11-06T11:06:44.754Z,6.28
2022-11-06T11:09:29.269Z,5.88
2022-11-06T11:11:55.706Z,5.68
2022-11-06T11:14:25.359Z,6.30
2022-11-06T11:16:52.601Z,5.72
2022-11-06T11:19:26.592Z,6.90
2022-11-06T11:21:55.493Z,5.82
2022-11-06T11:24:21.884Z,4.95
2022-11-06T11:26:51.030Z,5.82
2022-11-06T11:29:25.950Z,5.35
2022-11-06T11:31:56.650Z,6.43
2022-11-06T11:34:29.273Z,5.32
2022-11-06T11:36:58.098Z,5.15
2022-11-06T11:39:28.984Z,5.32
2022-11-06T11:42:31.326Z,5.15
2022-11-06T11:45:14.631Z,5.20
2022-11-06T11:47:43.574Z,4.88
2022-11-06T11:50:21.923Z,4.63
2022-11-06T11:52:51.345Z,4.55
2022-11-06T11:55:21.112Z,5.63
2022-11-06T11:57:54.652Z,5.18
2022-11-06T12:00:23.360Z,5.22
2022-11-06T12:03:05.831Z,5.68
2022-11-06T12:05:38.276Z,5.40
2022-11-06T12:08:06.326Z,5.40
2022-11-06T12:10:38.853Z,5.25
2022-11-06T12:13:07.890Z,5.70
2022-11-06T12:15:49.775Z,5.75
2022-11-06T12:18:29.219Z,4.93
2022-11-06T12:21:08.095Z,4.88
2022-11-06T12:23:42.803Z,5.47
2022-11-06T12:26:38.989Z,5.15
2022-11-06T12:29:14.415Z,5.20
2022-11-06T12:31:47.639Z,5.07
2022-11-06T12:34:57.616Z,4.93
2022-11-06T12:37:42.855Z,4.13
2022-11-06T12:40:25.475Z,5.35
2022-11-06T12:43:03.879Z,4.90
2022-11-06T12:45:53.527Z,4.18
2022-11-06T12:48:44.451Z,5.03
2022-11-06T12:51:35.392Z,4.53
2022-11-06T12:54:39.130Z,4.32
2022-11-06T12:57:11.578Z,4.57
2022-11-06T12:59:59.271Z,5.40
2022-11-06T13:03:03.313Z,4.72
2022-11-06T13:05:36.406Z,4.60
2022-11-06T13:08:30.466Z,4.60
2022-11-06T13:11:17.449Z,4.20
2022-11-06T13:13:55.798Z,4.20
2022-11-06T13:16:31.884Z,5.03
2022-11-06T13:19:10.425Z,4.18
2022-11-06T13:21:52.260Z,4.00
2022-11-06T13:24:44.206Z,4.78
2022-11-06T13:27:13.585Z,4.15
2022-11-06T13:29:41.401Z,4.63
2022-11-06T13:32:19.024Z,4.00
2022-11-06T13:34:50.715Z,3.67
2022-11-06T13:37:45.335Z,3.97
2022-11-06T13:40:41.045Z,3.85
2022-11-06T13:43:17.572Z,4.53
2022-11-06T13:46:23.602Z,3.92
2022-11-06T13:49:06.347Z,3.38
2022-11-06T13:51:50.919Z,3.15
2022-11-06T13:54:31.476Z,4.25
2022-11-06T13:57:13.017Z,4.18
2022-11-06T14:00:07.755Z,4.43
2022-11-06T14:02:51.894Z,3.88
2022-11-06T14:05:43.033Z,3.20
2022-11-06T14:10:55.665Z,3.13
2022-11-06T14:13:27.981Z,3.63
2022-11-06T14:16:03.710Z,3.65
2022-11-06T14:18:30.475Z,3.78
2022-11-06T14:21:34.771Z,3.95
2022-11-06T14:24:28.230Z,3.20
2022-11-06T14:26:55.358Z,3.70
2022-11-06T14:29:27.752Z,3.38
2022-11-06T14:32:32.255Z,3.50
2022-11-06T14:35:33.864Z,3.58
2022-11-06T14:38:09.288Z,2.72
2022-11-06T14:40:38.001Z,3.88
2022-11-06T14:43:21.777Z,3.35
2022-11-06T14:46:22.660Z,3.75
2022-11-06T14:48:54.562Z,3.90
2022-11-06T14:51:29.173Z,4.05
2022-11-06T14:53:59.569Z,3.78
2022-11-06T14:56:28.531Z,3.60
2022-11-06T14:59:02.267Z,3.63
2022-11-06T15:01:32.134Z,3.42
2022-11-06T15:04:14.921Z,3.65
2022-11-06T15:06:43.703Z,3.67
2022-11-06T15:09:35.864Z,4.80
2022-11-06T15:12:05.460Z,4.45
2022-11-06T15:14:31.790Z,4.88
2022-11-06T15:17:06.740Z,5.40
2022-11-06T15:19:47.300Z,6.07
2022-11-06T15:22:39.972Z,4.88
2022-11-06T15:25:21.532Z,3.42
2022-11-06T15:27:56.870Z,4.22
2022-11-06T15:30:23.691Z,3.78
2022-11-06T15:32:52.716Z,3.58
2022-11-06T15:35:25.745Z,3.97
2022-11-06T15:37:56.564Z,3.67
2022-11-06T15:40:30.178Z,3.92
2022-11-06T15:43:00.124Z,4.03
2022-11-06T15:45:28.305Z,4.63
2022-11-06T15:48:17.199Z,4.53
2022-11-06T15:50:43.748Z,3.83
2022-11-06T15:53:13.181Z,4.75
2022-11-06T15:55:49.995Z,3.70
2022-11-06T15:58:16.501Z,4.10
2022-11-06T16:00:43.441Z,4.88
2022-11-06T16:03:14.909Z,5.40
2022-11-06T16:05:42.274Z,5.90
2022-11-06T16:08:13.352Z,6.55
2022-11-06T16:10:41.049Z,6.10
2022-11-06T16:13:13.623Z,5.70
2022-11-06T16:15:43.690Z,5.30
2022-11-06T16:18:22.344Z,5.05
2022-11-06T16:21:17.597Z,4.53
2022-11-06T16:23:51.174Z,5.07
2022-11-06T16:26:31.594Z,4.63
2022-11-06T16:28:59.918Z,6.00
2022-11-06T16:31:30.994Z,5.47
2022-11-06T16:39:35.383Z,4.55
2022-11-06T16:42:13.954Z,4.97
2022-11-06T16:44:40.258Z,5.47
2022-11-06T16:47:09.666Z,5.70
2022-11-06T16:49:57.162Z,6.15
2022-11-06T16:52:30.091Z,6.03
2022-11-06T16:55:16.764Z,4.97
2022-11-06T16:57:56.966Z,5.40
2022-11-06T17:00:27.689Z,5.20
2022-11-06T17:03:00.157Z,5.40
2022-11-06T17:05:29.081Z,6.13
2022-11-06T17:08:08.476Z,5.68
2022-11-06T17:10:34.855Z,5.43
2022-11-06T17:13:12.785Z,5.68
2022-11-06T17:15:39.865Z,5.55
2022-11-06T17:18:06.627Z,5.40
2022-11-06T17:20:33.624Z,5.20
2022-11-06T17:23:00.015Z,5.63
2022-11-06T17:25:26.415Z,5.43
2022-11-06T17:27:52.993Z,5.85
2022-11-06T17:30:19.364Z,5.75
2022-11-06T17:32:45.745Z,5.65
2022-11-06T17:35:12.123Z,5.75
2022-11-06T17:37:38.531Z,6.07
2022-11-06T17:40:05.230Z,6.20
2022-11-06T17:42:31.665Z,6.22
2022-11-06T17:44:58.065Z,7.25
2022-11-06T17:47:24.444Z,6.03
2022-11-06T17:49:51.335Z,5.93
2022-11-06T17:52:17.753Z,5.35
2022-11-06T17:54:44.135Z,6.18
2022-11-06T17:57:10.566Z,6.50
2022-11-06T17:59:36.963Z,5.43
2022-11-06T18:02:03.590Z,5.55
2022-11-06T18:04:30.622Z,4.93
2022-11-06T18:06:57.622Z,5.70
2022-11-06T18:09:24.395Z,5.13
2022-11-06T18:11:52.624Z,5.07
2022-11-06T18:14:20.096Z,5.55
2022-11-06T18:16:46.854Z,5.03
2022-11-06T18:19:16.289Z,4.57
2022-11-06T18:21:43.143Z,4.95
2022-11-06T18:24:09.792Z,5.00
2022-11-06T18:26:40.007Z,4.72
2022-11-06T18:29:07.575Z,5.43
2022-11-06T18:31:34.874Z,5.55
2022-11-06T18:34:02.303Z,5.70
2022-11-06T18:36:28.708Z,6.05
2022-11-06T18:38:55.103Z,4.88
2022-11-06T18:41:22.437Z,6.47
2022-11-06T18:43:49.047Z,5.90
2022-11-06T18:46:17.784Z,6.15
2022-11-06T18:48:44.604Z,6.50
2022-11-06T18:51:27.845Z,6.20
2022-11-06T18:54:04.610Z,6.07
2022-11-06T18:56:32.343Z,6.35
2022-11-06T18:58:59.457Z,6.05
2022-11-06T19:01:25.973Z,6.32
2022-11-06T19:03:52.520Z,5.47
2022-11-06T19:06:20.211Z,6.43
2022-11-06T19:08:47.612Z,6.85
2022-11-06T19:11:15.777Z,6.47
2022-11-06T19:13:47.495Z,6.03
2022-11-06T19:16:14.662Z,6.35
2022-11-06T19:18:41.801Z,6.35
2022-11-06T19:21:10.731Z,6.53
2022-11-06T19:23:44.447Z,6.53
2022-11-06T19:26:30.723Z,6.13
2022-11-06T19:28:58.235Z,6.50
2022-11-06T19:31:28.810Z,6.63
2022-11-06T19:33:56.342Z,6.65
2022-11-06T19:36:22.723Z,7.43
2022-11-06T19:38:49.098Z,6.82
2022-11-06T19:41:15.509Z,6.60
2022-11-06T19:43:41.897Z,7.53
2022-11-06T19:46:08.734Z,7.95
2022-11-06T19:48:35.409Z,6.60
2022-11-06T19:51:02.075Z,7.78
2022-11-06T19:53:28.466Z,7.60
2022-11-06T19:55:56.026Z,7.93
2022-11-06T19:58:22.555Z,8.25
2022-11-06T20:00:48.933Z,9.02
2022-11-06T20:03:16.783Z,8.48
2022-11-06T20:05:43.817Z,8.70
2022-11-06T20:08:10.392Z,8.63
2022-11-06T20:10:37.273Z,8.27
2022-11-06T20:13:04.624Z,8.98
2022-11-06T20:15:31.198Z,9.40
2022-11-06T20:17:57.587Z,9.70
2022-11-06T20:20:24.373Z,9.27
2022-11-06T20:22:51.131Z,8.60
2022-11-06T20:25:17.654Z,10.00
2022-11-06T20:27:44.291Z,10.13
2022-11-06T20:30:11.455Z,9.02
2022-11-06T20:32:37.952Z,8.77
2022-11-06T20:35:05.715Z,9.77
2022-11-06T20:37:33.045Z,9.77
2022-11-06T20:39:59.446Z,9.90
2022-11-06T20:42:25.846Z,9.65
2022-11-06T20:44:52.251Z,10.43
2022-11-06T20:47:18.657Z,10.30
2022-11-06T20:49:45.071Z,10.70
2022-11-06T20:52:14.053Z,10.73
2022-11-06T20:54:46.679Z,10.73
2022-11-06T20:57:13.504Z,10.90
2022-11-06T20:59:40.075Z,10.73
2022-11-06T21:02:06.577Z,11.35
2022-11-06T21:04:33.111Z,11.30
2022-11-06T21:06:59.493Z,11.35
2022-11-06T21:09:26.029Z,11.90
2022-11-06T21:11:52.410Z,11.82
2022-11-06T21:14:18.822Z,12.10
2022-11-06T21:16:45.846Z,11.98
2022-11-06T21:19:12.224Z,11.82
2022-11-06T21:21:38.674Z,11.30
2022-11-06T21:24:06.148Z,11.75
2022-11-06T21:26:35.379Z,11.50
2022-11-06T21:29:04.569Z,11.57
2022-11-06T21:31:31.580Z,12.68
2022-11-06T21:34:00.004Z,11.07
2022-11-06T21:36:30.220Z,13.68
2022-11-06T21:38:59.507Z,12.23
2022-11-06T21:41:28.110Z,12.65
2022-11-06T21:43:54.573Z,13.25
2022-11-06T21:46:21.990Z,12.60
2022-11-06T21:48:50.013Z,12.63
2022-11-06T21:51:24.215Z,12.60
2022-11-06T21:54:09.927Z,12.88
2022-11-06T21:56:37.977Z,14.10
2022-11-06T21:59:07.237Z,13.30
2022-11-06T22:01:33.921Z,12.80
2022-11-06T22:04:00.954Z,13.07
2022-11-06T22:06:28.877Z,13.07
2022-11-06T22:08:57.530Z,13.80
2022-11-06T22:11:32.381Z,12.90
2022-11-06T22:14:01.074Z,12.82
2022-11-06T22:16:30.153Z,13.38
2022-11-06T22:18:57.582Z,12.88
2022-11-06T22:21:26.892Z,14.80
2022-11-06T22:23:53.679Z,13.80
2022-11-06T22:26:25.970Z,13.52
2022-11-06T22:28:54.585Z,13.05
2022-11-06T22:31:21.531Z,14.55
2022-11-06T22:33:53.398Z,13.55
2022-11-06T22:36:21.779Z,13.40
2022-11-06T22:38:48.593Z,13.80
2022-11-06T22:41:18.399Z,13.70
2022-11-06T22:43:44.797Z,12.50
2022-11-06T22:46:21.235Z,12.95
2022-11-06T22:48:48.222Z,14.25
2022-11-06T22:51:17.842Z,13.35
2022-11-06T22:53:44.338Z,13.68
2022-11-06T22:56:13.938Z,13.88
2022-11-06T22:58:41.296Z,13.32
2022-11-06T23:01:09.356Z,15.00
2022-11-06T23:03:35.859Z,14.55
2022-11-06T23:06:04.834Z,14.48
2022-11-06T23:08:31.689Z,13.77
2022-11-06T23:10:58.924Z,13.38
2022-11-06T23:13:25.337Z,14.05
2022-11-06T23:16:00.125Z,14.80
2022-11-06T23:18:26.516Z,15.02
2022-11-06T23:20:52.905Z,13.50
2022-11-06T23:23:19.350Z,14.52
2022-11-06T23:25:45.736Z,14.98
2022-11-06T23:28:12.154Z,14.38
2022-11-06T23:30:38.545Z,15.13
2022-11-06T23:33:04.946Z,14.10
2022-11-06T23:35:32.813Z,14.95
2022-11-06T23:37:59.993Z,15.38
2022-11-06T23:40:26.728Z,14.40
2022-11-06T23:42:56.044Z,14.18
2022-11-06T23:45:40.883Z,12.93
2022-11-06T23:48:14.421Z,13.13
2022-11-06T23:50:41.694Z,13.23
2022-11-06T23:53:08.095Z,13.90
2022-11-06T23:55:34.609Z,13.88
2022-11-06T23:58:01.007Z,14.25
